sensor_id;sensor_type;location;lat;lon;timestamp;temperature;humidity
43697;DHT22;29301;47.620;19.560;2022-08-30T00:01:06;22.10;99.90
43697;DHT22;29301;47.620;19.560;2022-08-30T00:03:36;22.10;99.80
43697;DHT22;29301;47.620;19.560;2022-08-30T00:06:04;22.00;99.90
43697;DHT22;29301;47.620;19.560;2022-08-30T00:08:31;22.00;99.90
43697;DHT22;29301;47.620;19.560;2022-08-30T00:10:58;21.90;99.90
43697;DHT22;29301;47.620;19.560;2022-08-30T00:13:24;22.00;99.90
43697;DHT22;29301;47.620;19.560;2022-08-30T00:15:50;21.90;99.90
43697;DHT22;29301;47.620;19.560;2022-08-30T00:18:18;21.90;99.90
43697;DHT22;29301;47.620;19.560;2022-08-30T00:20:46;21.90;99.90
43697;DHT22;29301;47.620;19.560;2022-08-30T00:23:12;21.80;99.90
43697;DHT22;29301;47.620;19.560;2022-08-30T00:25:39;21.90;99.90
43697;DHT22;29301;47.620;19.560;2022-08-30T00:28:05;21.80;99.90
43697;DHT22;29301;47.620;19.560;2022-08-30T00:30:30;21.70;99.90
43697;DHT22;29301;47.620;19.560;2022-08-30T00:32:56;21.70;99.90
43697;DHT22;29301;47.620;19.560;2022-08-30T00:35:24;21.60;99.90
43697;DHT22;29301;47.620;19.560;2022-08-30T00:37:50;21.70;99.90
43697;DHT22;29301;47.620;19.560;2022-08-30T00:40:17;21.60;99.90
43697;DHT22;29301;47.620;19.560;2022-08-30T00:42:46;21.50;99.90
43697;DHT22;29301;47.620;19.560;2022-08-30T00:45:20;21.60;99.90
43697;DHT22;29301;47.620;19.560;2022-08-30T00:47:47;21.70;99.90
43697;DHT22;29301;47.620;19.560;2022-08-30T00:50:14;21.60;99.90
43697;DHT22;29301;47.620;19.560;2022-08-30T00:52:44;21.70;99.90
43697;DHT22;29301;47.620;19.560;2022-08-30T00:55:11;21.60;99.90
43697;DHT22;29301;47.620;19.560;2022-08-30T00:57:42;21.70;99.90
43697;DHT22;29301;47.620;19.560;2022-08-30T01:00:09;21.70;99.90
43697;DHT22;29301;47.620;19.560;2022-08-30T01:02:35;21.70;99.90
43697;DHT22;29301;47.620;19.560;2022-08-30T01:05:02;21.70;99.90
43697;DHT22;29301;47.620;19.560;2022-08-30T01:07:29;21.70;99.90
43697;DHT22;29301;47.620;19.560;2022-08-30T01:09:54;21.70;99.90
43697;DHT22;29301;47.620;19.560;2022-08-30T01:12:20;21.80;99.90
43697;DHT22;29301;47.620;19.560;2022-08-30T01:14:47;21.90;99.90
43697;DHT22;29301;47.620;19.560;2022-08-30T01:17:15;21.90;99.90
43697;DHT22;29301;47.620;19.560;2022-08-30T01:19:56;21.90;99.90
43697;DHT22;29301;47.620;19.560;2022-08-30T01:25:02;21.90;99.90
43697;DHT22;29301;47.620;19.560;2022-08-30T01:27:29;21.90;99.90
43697;DHT22;29301;47.620;19.560;2022-08-30T01:29:57;21.80;99.90
43697;DHT22;29301;47.620;19.560;2022-08-30T01:32:26;21.80;99.90
43697;DHT22;29301;47.620;19.560;2022-08-30T01:34:54;21.80;99.90
43697;DHT22;29301;47.620;19.560;2022-08-30T01:37:30;21.80;99.90
43697;DHT22;29301;47.620;19.560;2022-08-30T01:39:58;21.80;99.90
43697;DHT22;29301;47.620;19.560;2022-08-30T01:42:24;21.70;99.90
43697;DHT22;29301;47.620;19.560;2022-08-30T01:44:50;21.60;99.90
43697;DHT22;29301;47.620;19.560;2022-08-30T01:47:17;21.50;99.90
43697;DHT22;29301;47.620;19.560;2022-08-30T01:49:44;21.40;99.90
43697;DHT22;29301;47.620;19.560;2022-08-30T01:52:10;21.40;99.90
43697;DHT22;29301;47.620;19.560;2022-08-30T01:54:38;21.30;99.90
43697;DHT22;29301;47.620;19.560;2022-08-30T01:57:09;21.40;99.90
43697;DHT22;29301;47.620;19.560;2022-08-30T01:59:36;21.40;99.90
43697;DHT22;29301;47.620;19.560;2022-08-30T02:02:03;21.50;99.90
43697;DHT22;29301;47.620;19.560;2022-08-30T02:04:29;21.40;99.90
43697;DHT22;29301;47.620;19.560;2022-08-30T02:06:55;21.40;99.90
43697;DHT22;29301;47.620;19.560;2022-08-30T02:09:20;21.40;99.90
43697;DHT22;29301;47.620;19.560;2022-08-30T02:11:46;21.40;99.90
43697;DHT22;29301;47.620;19.560;2022-08-30T02:14:13;21.40;99.90
43697;DHT22;29301;47.620;19.560;2022-08-30T02:16:39;21.40;99.90
43697;DHT22;29301;47.620;19.560;2022-08-30T02:19:05;21.40;99.90
43697;DHT22;29301;47.620;19.560;2022-08-30T02:21:31;21.30;99.90
43697;DHT22;29301;47.620;19.560;2022-08-30T02:23:57;21.30;99.90
43697;DHT22;29301;47.620;19.560;2022-08-30T02:26:24;21.30;99.90
43697;DHT22;29301;47.620;19.560;2022-08-30T02:28:51;21.20;99.90
43697;DHT22;29301;47.620;19.560;2022-08-30T02:31:18;21.10;99.90
43697;DHT22;29301;47.620;19.560;2022-08-30T02:33:44;21.10;99.90
43697;DHT22;29301;47.620;19.560;2022-08-30T02:36:10;21.20;99.90
43697;DHT22;29301;47.620;19.560;2022-08-30T02:38:36;21.20;99.90
43697;DHT22;29301;47.620;19.560;2022-08-30T02:41:02;21.20;99.90
43697;DHT22;29301;47.620;19.560;2022-08-30T02:43:28;21.20;99.90
43697;DHT22;29301;47.620;19.560;2022-08-30T02:45:54;21.20;99.90
43697;DHT22;29301;47.620;19.560;2022-08-30T02:48:19;21.20;99.90
43697;DHT22;29301;47.620;19.560;2022-08-30T02:50:47;21.30;99.90
43697;DHT22;29301;47.620;19.560;2022-08-30T02:53:14;21.20;99.90
43697;DHT22;29301;47.620;19.560;2022-08-30T02:55:40;21.10;99.90
43697;DHT22;29301;47.620;19.560;2022-08-30T02:58:06;21.00;99.90
43697;DHT22;29301;47.620;19.560;2022-08-30T03:00:32;21.00;99.90
43697;DHT22;29301;47.620;19.560;2022-08-30T03:02:58;20.80;99.90
43697;DHT22;29301;47.620;19.560;2022-08-30T03:05:24;20.80;99.90
43697;DHT22;29301;47.620;19.560;2022-08-30T03:07:50;20.80;99.90
43697;DHT22;29301;47.620;19.560;2022-08-30T03:10:16;20.80;99.90
43697;DHT22;29301;47.620;19.560;2022-08-30T03:12:42;20.70;99.90
43697;DHT22;29301;47.620;19.560;2022-08-30T03:15:11;20.70;99.90
43697;DHT22;29301;47.620;19.560;2022-08-30T03:17:38;20.70;99.90
43697;DHT22;29301;47.620;19.560;2022-08-30T03:20:04;20.80;99.90
43697;DHT22;29301;47.620;19.560;2022-08-30T03:22:31;20.70;99.90
43697;DHT22;29301;47.620;19.560;2022-08-30T03:24:57;20.50;99.90
43697;DHT22;29301;47.620;19.560;2022-08-30T03:27:25;20.20;99.90
43697;DHT22;29301;47.620;19.560;2022-08-30T03:29:51;20.00;99.90
43697;DHT22;29301;47.620;19.560;2022-08-30T03:32:16;20.20;99.90
43697;DHT22;29301;47.620;19.560;2022-08-30T03:34:42;20.20;99.90
43697;DHT22;29301;47.620;19.560;2022-08-30T03:37:08;20.10;99.90
43697;DHT22;29301;47.620;19.560;2022-08-30T03:39:34;20.20;99.90
43697;DHT22;29301;47.620;19.560;2022-08-30T03:41:59;20.30;99.90
43697;DHT22;29301;47.620;19.560;2022-08-30T03:44:25;20.30;99.90
43697;DHT22;29301;47.620;19.560;2022-08-30T03:46:51;20.30;99.90
43697;DHT22;29301;47.620;19.560;2022-08-30T03:49:18;20.30;99.90
43697;DHT22;29301;47.620;19.560;2022-08-30T03:51:45;20.30;99.90
43697;DHT22;29301;47.620;19.560;2022-08-30T03:54:11;20.00;99.90
43697;DHT22;29301;47.620;19.560;2022-08-30T03:56:37;19.90;99.90
43697;DHT22;29301;47.620;19.560;2022-08-30T03:59:04;20.10;99.90
43697;DHT22;29301;47.620;19.560;2022-08-30T04:01:30;20.20;99.90
43697;DHT22;29301;47.620;19.560;2022-08-30T04:03:56;20.20;99.90
43697;DHT22;29301;47.620;19.560;2022-08-30T04:06:22;20.10;99.90
43697;DHT22;29301;47.620;19.560;2022-08-30T04:08:48;20.10;99.90
43697;DHT22;29301;47.620;19.560;2022-08-30T04:11:14;20.10;99.90
43697;DHT22;29301;47.620;19.560;2022-08-30T04:13:41;20.20;99.90
43697;DHT22;29301;47.620;19.560;2022-08-30T04:16:07;20.20;99.90
43697;DHT22;29301;47.620;19.560;2022-08-30T04:18:34;20.30;99.90
43697;DHT22;29301;47.620;19.560;2022-08-30T04:21:01;20.30;99.90
43697;DHT22;29301;47.620;19.560;2022-08-30T04:23:27;20.10;99.90
43697;DHT22;29301;47.620;19.560;2022-08-30T04:25:53;20.10;99.90
43697;DHT22;29301;47.620;19.560;2022-08-30T04:28:20;20.20;99.90
43697;DHT22;29301;47.620;19.560;2022-08-30T04:30:45;20.20;99.90
43697;DHT22;29301;47.620;19.560;2022-08-30T04:33:13;20.30;99.90
43697;DHT22;29301;47.620;19.560;2022-08-30T04:35:48;20.30;99.90
43697;DHT22;29301;47.620;19.560;2022-08-30T04:38:15;20.20;99.90
43697;DHT22;29301;47.620;19.560;2022-08-30T04:40:46;20.10;99.90
43697;DHT22;29301;47.620;19.560;2022-08-30T04:43:16;20.00;99.90
43697;DHT22;29301;47.620;19.560;2022-08-30T04:45:41;20.10;99.90
43697;DHT22;29301;47.620;19.560;2022-08-30T04:48:07;20.10;99.90
43697;DHT22;29301;47.620;19.560;2022-08-30T04:50:33;20.30;99.90
43697;DHT22;29301;47.620;19.560;2022-08-30T04:52:59;20.30;99.90
43697;DHT22;29301;47.620;19.560;2022-08-30T04:55:24;20.30;99.90
43697;DHT22;29301;47.620;19.560;2022-08-30T04:57:51;20.20;99.90
43697;DHT22;29301;47.620;19.560;2022-08-30T05:00:18;20.20;99.90
43697;DHT22;29301;47.620;19.560;2022-08-30T05:02:46;20.20;99.90
43697;DHT22;29301;47.620;19.560;2022-08-30T05:05:12;20.20;99.90
43697;DHT22;29301;47.620;19.560;2022-08-30T05:07:57;20.30;99.90
43697;DHT22;29301;47.620;19.560;2022-08-30T05:10:24;20.30;99.90
43697;DHT22;29301;47.620;19.560;2022-08-30T05:12:52;20.30;99.90
43697;DHT22;29301;47.620;19.560;2022-08-30T05:15:19;20.30;99.90
43697;DHT22;29301;47.620;19.560;2022-08-30T05:17:45;20.40;99.90
43697;DHT22;29301;47.620;19.560;2022-08-30T05:20:11;20.40;99.90
43697;DHT22;29301;47.620;19.560;2022-08-30T05:22:39;20.50;99.90
43697;DHT22;29301;47.620;19.560;2022-08-30T05:25:06;20.50;99.90
43697;DHT22;29301;47.620;19.560;2022-08-30T05:27:33;20.60;99.90
43697;DHT22;29301;47.620;19.560;2022-08-30T05:29:58;20.60;99.90
43697;DHT22;29301;47.620;19.560;2022-08-30T05:32:24;20.70;99.90
43697;DHT22;29301;47.620;19.560;2022-08-30T05:34:50;20.70;99.90
43697;DHT22;29301;47.620;19.560;2022-08-30T05:37:16;20.80;99.90
43697;DHT22;29301;47.620;19.560;2022-08-30T05:39:42;20.80;99.90
43697;DHT22;29301;47.620;19.560;2022-08-30T05:42:08;20.90;99.90
43697;DHT22;29301;47.620;19.560;2022-08-30T05:44:34;21.00;99.90
43697;DHT22;29301;47.620;19.560;2022-08-30T05:47:00;21.00;99.90
43697;DHT22;29301;47.620;19.560;2022-08-30T05:49:25;21.10;99.90
43697;DHT22;29301;47.620;19.560;2022-08-30T05:51:51;21.20;99.90
43697;DHT22;29301;47.620;19.560;2022-08-30T05:54:17;21.30;99.90
43697;DHT22;29301;47.620;19.560;2022-08-30T05:56:44;21.30;99.90
43697;DHT22;29301;47.620;19.560;2022-08-30T05:59:11;21.40;99.90
43697;DHT22;29301;47.620;19.560;2022-08-30T06:01:41;21.50;99.90
43697;DHT22;29301;47.620;19.560;2022-08-30T06:04:09;21.60;99.90
43697;DHT22;29301;47.620;19.560;2022-08-30T06:06:38;21.70;99.90
43697;DHT22;29301;47.620;19.560;2022-08-30T06:09:05;21.80;99.90
43697;DHT22;29301;47.620;19.560;2022-08-30T06:11:32;21.80;99.90
43697;DHT22;29301;47.620;19.560;2022-08-30T06:13:58;21.90;99.90
43697;DHT22;29301;47.620;19.560;2022-08-30T06:16:25;22.10;99.90
43697;DHT22;29301;47.620;19.560;2022-08-30T06:18:53;22.20;99.90
43697;DHT22;29301;47.620;19.560;2022-08-30T06:21:30;22.20;99.90
43697;DHT22;29301;47.620;19.560;2022-08-30T06:23:57;22.20;99.90
43697;DHT22;29301;47.620;19.560;2022-08-30T06:26:24;22.30;99.90
43697;DHT22;29301;47.620;19.560;2022-08-30T06:28:50;22.30;99.90
43697;DHT22;29301;47.620;19.560;2022-08-30T06:31:17;22.30;99.90
43697;DHT22;29301;47.620;19.560;2022-08-30T06:33:44;22.30;99.90
43697;DHT22;29301;47.620;19.560;2022-08-30T06:36:13;22.40;99.90
43697;DHT22;29301;47.620;19.560;2022-08-30T06:38:39;22.50;99.90
43697;DHT22;29301;47.620;19.560;2022-08-30T06:41:11;22.60;99.90
43697;DHT22;29301;47.620;19.560;2022-08-30T06:43:38;22.70;99.90
43697;DHT22;29301;47.620;19.560;2022-08-30T06:46:06;22.80;99.90
43697;DHT22;29301;47.620;19.560;2022-08-30T06:48:32;22.80;99.90
43697;DHT22;29301;47.620;19.560;2022-08-30T06:50:58;22.80;99.90
43697;DHT22;29301;47.620;19.560;2022-08-30T06:53:24;22.90;99.90
43697;DHT22;29301;47.620;19.560;2022-08-30T06:56:07;23.00;99.90
43697;DHT22;29301;47.620;19.560;2022-08-30T06:58:33;23.10;99.90
43697;DHT22;29301;47.620;19.560;2022-08-30T07:01:00;23.10;99.90
43697;DHT22;29301;47.620;19.560;2022-08-30T07:03:25;23.20;99.90
43697;DHT22;29301;47.620;19.560;2022-08-30T07:05:52;23.30;99.60
43697;DHT22;29301;47.620;19.560;2022-08-30T07:08:18;23.30;99.90
43697;DHT22;29301;47.620;19.560;2022-08-30T07:10:44;23.50;99.30
43697;DHT22;29301;47.620;19.560;2022-08-30T07:13:10;23.60;97.80
43697;DHT22;29301;47.620;19.560;2022-08-30T07:15:43;23.60;97.90
43697;DHT22;29301;47.620;19.560;2022-08-30T07:18:10;23.70;97.70
43697;DHT22;29301;47.620;19.560;2022-08-30T07:20:56;23.80;97.40
43697;DHT22;29301;47.620;19.560;2022-08-30T07:23:22;23.80;97.40
43697;DHT22;29301;47.620;19.560;2022-08-30T07:25:48;24.00;97.20
43697;DHT22;29301;47.620;19.560;2022-08-30T07:28:13;24.10;95.80
43697;DHT22;29301;47.620;19.560;2022-08-30T07:30:40;24.30;94.90
43697;DHT22;29301;47.620;19.560;2022-08-30T07:33:06;24.50;93.50
43697;DHT22;29301;47.620;19.560;2022-08-30T07:35:32;24.80;92.60
43697;DHT22;29301;47.620;19.560;2022-08-30T07:37:58;25.10;91.90
43697;DHT22;29301;47.620;19.560;2022-08-30T07:40:24;25.20;90.30
43697;DHT22;29301;47.620;19.560;2022-08-30T07:42:50;25.30;90.40
43697;DHT22;29301;47.620;19.560;2022-08-30T07:45:16;25.50;90.50
43697;DHT22;29301;47.620;19.560;2022-08-30T07:47:43;25.80;90.00
43697;DHT22;29301;47.620;19.560;2022-08-30T07:50:09;25.90;90.90
43697;DHT22;29301;47.620;19.560;2022-08-30T07:52:35;25.90;90.90
43697;DHT22;29301;47.620;19.560;2022-08-30T07:55:00;26.00;90.10
43697;DHT22;29301;47.620;19.560;2022-08-30T07:57:26;26.20;85.50
43697;DHT22;29301;47.620;19.560;2022-08-30T07:59:55;26.40;85.90
43697;DHT22;29301;47.620;19.560;2022-08-30T08:02:21;26.70;86.80
43697;DHT22;29301;47.620;19.560;2022-08-30T08:04:47;26.90;87.20
43697;DHT22;29301;47.620;19.560;2022-08-30T08:07:13;26.90;75.90
43697;DHT22;29301;47.620;19.560;2022-08-30T08:09:39;26.90;76.80
43697;DHT22;29301;47.620;19.560;2022-08-30T08:12:06;27.10;78.40
43697;DHT22;29301;47.620;19.560;2022-08-30T08:14:32;27.20;74.70
43697;DHT22;29301;47.620;19.560;2022-08-30T08:16:59;27.10;75.70
43697;DHT22;29301;47.620;19.560;2022-08-30T08:19:25;26.90;74.40
43697;DHT22;29301;47.620;19.560;2022-08-30T08:21:50;26.80;75.30
43697;DHT22;29301;47.620;19.560;2022-08-30T08:24:22;26.70;76.20
43697;DHT22;29301;47.620;19.560;2022-08-30T08:26:47;26.70;75.90
43697;DHT22;29301;47.620;19.560;2022-08-30T08:29:13;26.70;74.70
43697;DHT22;29301;47.620;19.560;2022-08-30T08:31:39;26.60;74.00
43697;DHT22;29301;47.620;19.560;2022-08-30T08:34:06;26.40;74.20
43697;DHT22;29301;47.620;19.560;2022-08-30T08:36:33;26.40;74.60
43697;DHT22;29301;47.620;19.560;2022-08-30T08:39:00;26.40;74.60
43697;DHT22;29301;47.620;19.560;2022-08-30T08:43:58;26.70;73.00
43697;DHT22;29301;47.620;19.560;2022-08-30T08:46:36;26.70;71.40
43697;DHT22;29301;47.620;19.560;2022-08-30T08:49:06;26.80;69.40
43697;DHT22;29301;47.620;19.560;2022-08-30T08:51:35;26.80;68.60
43697;DHT22;29301;47.620;19.560;2022-08-30T08:54:31;26.90;70.20
43697;DHT22;29301;47.620;19.560;2022-08-30T08:56:58;27.00;68.90
43697;DHT22;29301;47.620;19.560;2022-08-30T08:59:25;27.30;68.90
43697;DHT22;29301;47.620;19.560;2022-08-30T09:01:51;27.30;66.10
43697;DHT22;29301;47.620;19.560;2022-08-30T09:04:21;27.20;65.70
43697;DHT22;29301;47.620;19.560;2022-08-30T09:07:02;27.20;65.30
43697;DHT22;29301;47.620;19.560;2022-08-30T09:09:38;27.30;64.80
43697;DHT22;29301;47.620;19.560;2022-08-30T09:12:07;27.30;63.90
43697;DHT22;29301;47.620;19.560;2022-08-30T09:14:36;27.30;64.00
43697;DHT22;29301;47.620;19.560;2022-08-30T09:17:06;27.40;63.30
43697;DHT22;29301;47.620;19.560;2022-08-30T09:25:28;26.60;63.60
43697;DHT22;29301;47.620;19.560;2022-08-30T09:28:12;26.50;65.10
43697;DHT22;29301;47.620;19.560;2022-08-30T09:30:39;26.50;65.10
43697;DHT22;29301;47.620;19.560;2022-08-30T09:33:18;26.70;64.80
43697;DHT22;29301;47.620;19.560;2022-08-30T09:35:47;26.90;63.30
43697;DHT22;29301;47.620;19.560;2022-08-30T09:38:19;27.00;62.10
43697;DHT22;29301;47.620;19.560;2022-08-30T09:40:54;27.10;61.40
43697;DHT22;29301;47.620;19.560;2022-08-30T09:46:05;27.30;60.20
43697;DHT22;29301;47.620;19.560;2022-08-30T09:48:41;27.20;59.40
43697;DHT22;29301;47.620;19.560;2022-08-30T09:53:48;27.80;59.10
43697;DHT22;29301;47.620;19.560;2022-08-30T09:56:26;28.00;57.80
43697;DHT22;29301;47.620;19.560;2022-08-30T10:01:36;27.80;59.50
43697;DHT22;29301;47.620;19.560;2022-08-30T10:04:18;28.40;58.30
43697;DHT22;29301;47.620;19.560;2022-08-30T10:06:51;28.90;57.10
43697;DHT22;29301;47.620;19.560;2022-08-30T10:09:24;29.40;55.90
43697;DHT22;29301;47.620;19.560;2022-08-30T10:17:37;29.80;55.00
43697;DHT22;29301;47.620;19.560;2022-08-30T10:23:12;29.90;55.00
43697;DHT22;29301;47.620;19.560;2022-08-30T10:28:19;29.50;55.10
43697;DHT22;29301;47.620;19.560;2022-08-30T10:30:54;29.50;55.50
43697;DHT22;29301;47.620;19.560;2022-08-30T10:33:25;29.40;55.40
43697;DHT22;29301;47.620;19.560;2022-08-30T10:35:56;29.30;55.50
43697;DHT22;29301;47.620;19.560;2022-08-30T10:38:32;29.10;55.20
43697;DHT22;29301;47.620;19.560;2022-08-30T10:49:48;29.40;57.10
43697;DHT22;29301;47.620;19.560;2022-08-30T10:52:35;29.50;57.00
43697;DHT22;29301;47.620;19.560;2022-08-30T10:55:30;29.70;56.30
43697;DHT22;29301;47.620;19.560;2022-08-30T10:58:02;30.00;55.50
43697;DHT22;29301;47.620;19.560;2022-08-30T11:00:29;30.20;55.00
43697;DHT22;29301;47.620;19.560;2022-08-30T11:12:15;29.90;56.40
43697;DHT22;29301;47.620;19.560;2022-08-30T11:14:45;30.00;56.20
43697;DHT22;29301;47.620;19.560;2022-08-30T11:17:38;30.30;54.80
43697;DHT22;29301;47.620;19.560;2022-08-30T11:20:31;30.00;54.40
43697;DHT22;29301;47.620;19.560;2022-08-30T11:33:45;30.30;54.70
43697;DHT22;29301;47.620;19.560;2022-08-30T11:39:12;30.20;54.90
43697;DHT22;29301;47.620;19.560;2022-08-30T11:44:26;29.40;54.60
43697;DHT22;29301;47.620;19.560;2022-08-30T11:46:57;28.70;55.10
43697;DHT22;29301;47.620;19.560;2022-08-30T11:49:31;28.60;56.10
43697;DHT22;29301;47.620;19.560;2022-08-30T11:55:10;29.20;55.30
43697;DHT22;29301;47.620;19.560;2022-08-30T11:57:49;29.60;55.50
43697;DHT22;29301;47.620;19.560;2022-08-30T12:11:00;30.60;54.40
43697;DHT22;29301;47.620;19.560;2022-08-30T12:16:14;30.00;52.00
43697;DHT22;29301;47.620;19.560;2022-08-30T12:18:47;29.60;53.30
43697;DHT22;29301;47.620;19.560;2022-08-30T12:24:12;29.60;54.20
43697;DHT22;29301;47.620;19.560;2022-08-30T12:26:42;29.90;54.10
43697;DHT22;29301;47.620;19.560;2022-08-30T12:39:40;30.40;53.80
43697;DHT22;29301;47.620;19.560;2022-08-30T12:42:28;30.50;53.80
43697;DHT22;29301;47.620;19.560;2022-08-30T12:44:58;30.60;54.60
43697;DHT22;29301;47.620;19.560;2022-08-30T12:47:44;30.60;54.20
43697;DHT22;29301;47.620;19.560;2022-08-30T12:50:14;30.60;54.70
43697;DHT22;29301;47.620;19.560;2022-08-30T12:52:45;30.40;54.80
43697;DHT22;29301;47.620;19.560;2022-08-30T12:55:22;30.30;55.10
43697;DHT22;29301;47.620;19.560;2022-08-30T13:00:34;30.20;55.20
43697;DHT22;29301;47.620;19.560;2022-08-30T13:03:26;30.20;55.20
43697;DHT22;29301;47.620;19.560;2022-08-30T13:05:49;30.30;55.30
43697;DHT22;29301;47.620;19.560;2022-08-30T13:08:21;30.30;55.30
43697;DHT22;29301;47.620;19.560;2022-08-30T13:11:05;30.40;55.30
43697;DHT22;29301;47.620;19.560;2022-08-30T13:16:25;30.50;55.30
43697;DHT22;29301;47.620;19.560;2022-08-30T13:21:53;30.40;55.30
43697;DHT22;29301;47.620;19.560;2022-08-30T13:24:19;30.50;55.10
43697;DHT22;29301;47.620;19.560;2022-08-30T13:26:45;30.40;55.10
43697;DHT22;29301;47.620;19.560;2022-08-30T13:29:21;29.80;54.90
43697;DHT22;29301;47.620;19.560;2022-08-30T13:31:49;29.60;55.90
43697;DHT22;29301;47.620;19.560;2022-08-30T13:34:14;29.90;56.00
43697;DHT22;29301;47.620;19.560;2022-08-30T13:36:50;30.00;55.80
43697;DHT22;29301;47.620;19.560;2022-08-30T13:39:17;30.10;55.90
43697;DHT22;29301;47.620;19.560;2022-08-30T13:41:43;30.20;55.60
43697;DHT22;29301;47.620;19.560;2022-08-30T13:44:09;30.20;55.60
43697;DHT22;29301;47.620;19.560;2022-08-30T13:46:35;30.10;55.90
43697;DHT22;29301;47.620;19.560;2022-08-30T13:49:06;30.10;56.50
43697;DHT22;29301;47.620;19.560;2022-08-30T13:51:32;30.10;56.70
43697;DHT22;29301;47.620;19.560;2022-08-30T13:53:58;30.00;56.50
43697;DHT22;29301;47.620;19.560;2022-08-30T13:56:26;29.80;56.50
43697;DHT22;29301;47.620;19.560;2022-08-30T13:58:57;29.70;56.70
43697;DHT22;29301;47.620;19.560;2022-08-30T14:01:22;29.70;56.90
43697;DHT22;29301;47.620;19.560;2022-08-30T14:03:48;29.70;57.10
43697;DHT22;29301;47.620;19.560;2022-08-30T14:06:14;29.80;56.90
43697;DHT22;29301;47.620;19.560;2022-08-30T14:08:40;29.90;56.70
43697;DHT22;29301;47.620;19.560;2022-08-30T14:11:06;29.90;56.60
43697;DHT22;29301;47.620;19.560;2022-08-30T14:13:32;29.90;56.70
43697;DHT22;29301;47.620;19.560;2022-08-30T14:16:00;30.00;56.70
43697;DHT22;29301;47.620;19.560;2022-08-30T14:18:27;30.00;56.20
43697;DHT22;29301;47.620;19.560;2022-08-30T14:20:53;29.80;56.10
43697;DHT22;29301;47.620;19.560;2022-08-30T14:23:18;29.70;56.00
43697;DHT22;29301;47.620;19.560;2022-08-30T14:25:44;29.60;55.80
43697;DHT22;29301;47.620;19.560;2022-08-30T14:28:10;29.60;55.70
43697;DHT22;29301;47.620;19.560;2022-08-30T14:30:36;29.60;55.80
43697;DHT22;29301;47.620;19.560;2022-08-30T14:33:03;29.70;55.80
43697;DHT22;29301;47.620;19.560;2022-08-30T14:35:29;29.70;55.70
43697;DHT22;29301;47.620;19.560;2022-08-30T14:37:55;29.60;55.60
43697;DHT22;29301;47.620;19.560;2022-08-30T14:40:21;29.70;56.10
43697;DHT22;29301;47.620;19.560;2022-08-30T14:42:47;29.90;56.00
43697;DHT22;29301;47.620;19.560;2022-08-30T14:45:13;29.80;56.30
43697;DHT22;29301;47.620;19.560;2022-08-30T14:47:39;29.70;56.80
43697;DHT22;29301;47.620;19.560;2022-08-30T14:50:05;29.70;56.50
43697;DHT22;29301;47.620;19.560;2022-08-30T14:52:32;29.70;56.60
43697;DHT22;29301;47.620;19.560;2022-08-30T14:54:59;29.60;56.60
43697;DHT22;29301;47.620;19.560;2022-08-30T14:57:25;29.60;56.80
43697;DHT22;29301;47.620;19.560;2022-08-30T14:59:51;29.70;57.80
43697;DHT22;29301;47.620;19.560;2022-08-30T15:02:17;29.80;57.30
43697;DHT22;29301;47.620;19.560;2022-08-30T15:04:43;29.80;57.10
43697;DHT22;29301;47.620;19.560;2022-08-30T15:07:08;29.90;57.20
43697;DHT22;29301;47.620;19.560;2022-08-30T15:09:34;29.90;56.70
43697;DHT22;29301;47.620;19.560;2022-08-30T15:12:01;29.90;56.50
43697;DHT22;29301;47.620;19.560;2022-08-30T15:14:28;29.90;56.50
43697;DHT22;29301;47.620;19.560;2022-08-30T15:16:57;29.90;56.70
43697;DHT22;29301;47.620;19.560;2022-08-30T15:19:24;30.10;56.30
43697;DHT22;29301;47.620;19.560;2022-08-30T15:21:50;30.10;56.20
43697;DHT22;29301;47.620;19.560;2022-08-30T15:24:20;30.30;55.70
43697;DHT22;29301;47.620;19.560;2022-08-30T15:26:46;30.30;55.60
43697;DHT22;29301;47.620;19.560;2022-08-30T15:29:15;30.30;55.20
43697;DHT22;29301;47.620;19.560;2022-08-30T15:31:42;30.40;55.10
43697;DHT22;29301;47.620;19.560;2022-08-30T15:34:11;30.30;55.00
43697;DHT22;29301;47.620;19.560;2022-08-30T15:36:38;30.30;54.90
43697;DHT22;29301;47.620;19.560;2022-08-30T15:39:04;30.30;54.60
43697;DHT22;29301;47.620;19.560;2022-08-30T15:41:30;30.20;54.70
43697;DHT22;29301;47.620;19.560;2022-08-30T15:43:57;30.10;54.60
43697;DHT22;29301;47.620;19.560;2022-08-30T15:46:29;30.00;54.90
43697;DHT22;29301;47.620;19.560;2022-08-30T15:49:16;29.90;55.50
43697;DHT22;29301;47.620;19.560;2022-08-30T15:51:44;30.00;55.40
43697;DHT22;29301;47.620;19.560;2022-08-30T15:54:11;29.90;55.20
43697;DHT22;29301;47.620;19.560;2022-08-30T15:56:38;29.90;55.20
43697;DHT22;29301;47.620;19.560;2022-08-30T15:59:04;29.90;55.20
43697;DHT22;29301;47.620;19.560;2022-08-30T16:01:30;29.90;55.60
43697;DHT22;29301;47.620;19.560;2022-08-30T16:03:56;29.90;55.70
43697;DHT22;29301;47.620;19.560;2022-08-30T16:06:25;29.90;55.90
43697;DHT22;29301;47.620;19.560;2022-08-30T16:08:52;29.90;55.90
43697;DHT22;29301;47.620;19.560;2022-08-30T16:11:20;29.80;56.00
43697;DHT22;29301;47.620;19.560;2022-08-30T16:13:47;29.80;56.10
43697;DHT22;29301;47.620;19.560;2022-08-30T16:16:14;29.70;56.20
43697;DHT22;29301;47.620;19.560;2022-08-30T16:18:39;29.60;56.30
43697;DHT22;29301;47.620;19.560;2022-08-30T16:21:15;29.60;56.40
43697;DHT22;29301;47.620;19.560;2022-08-30T16:23:43;29.50;56.40
43697;DHT22;29301;47.620;19.560;2022-08-30T16:26:10;29.50;56.60
43697;DHT22;29301;47.620;19.560;2022-08-30T16:28:37;29.50;56.60
43697;DHT22;29301;47.620;19.560;2022-08-30T16:31:04;29.30;56.60
43697;DHT22;29301;47.620;19.560;2022-08-30T16:33:31;29.30;56.80
43697;DHT22;29301;47.620;19.560;2022-08-30T16:35:57;29.20;57.10
43697;DHT22;29301;47.620;19.560;2022-08-30T16:38:24;29.20;57.90
43697;DHT22;29301;47.620;19.560;2022-08-30T16:40:51;29.10;57.50
43697;DHT22;29301;47.620;19.560;2022-08-30T16:43:17;29.10;57.40
43697;DHT22;29301;47.620;19.560;2022-08-30T16:45:43;29.10;57.70
43697;DHT22;29301;47.620;19.560;2022-08-30T16:48:11;29.00;57.70
43697;DHT22;29301;47.620;19.560;2022-08-30T16:50:39;29.00;58.00
43697;DHT22;29301;47.620;19.560;2022-08-30T16:53:06;28.90;58.20
43697;DHT22;29301;47.620;19.560;2022-08-30T16:55:35;28.80;58.40
43697;DHT22;29301;47.620;19.560;2022-08-30T16:58:02;28.80;58.60
43697;DHT22;29301;47.620;19.560;2022-08-30T17:00:29;28.80;58.80
43697;DHT22;29301;47.620;19.560;2022-08-30T17:02:56;28.80;58.80
43697;DHT22;29301;47.620;19.560;2022-08-30T17:05:22;28.80;58.90